createdAt,value
2023-02-16T00:01:59.867Z,15.68
2023-02-16T00:04:32.673Z,16.88
2023-02-16T00:07:01.004Z,16.35
2023-02-16T00:09:29.372Z,14.65
2023-02-16T00:12:15.383Z,13.63
2023-02-16T00:14:43.766Z,19.42
2023-02-16T00:17:12.180Z,12.77
2023-02-16T00:19:42.443Z,18.95
2023-02-16T00:22:12.163Z,18.73
2023-02-16T00:24:40.556Z,16.85
2023-02-16T00:27:14.041Z,18.70
2023-02-16T00:29:44.785Z,15.88
2023-02-16T00:32:17.099Z,15.20
2023-02-16T00:34:46.915Z,17.95
2023-02-16T00:37:15.311Z,15.98
2023-02-16T00:39:46.189Z,14.50
2023-02-16T00:42:19.524Z,16.20
2023-02-16T00:44:49.128Z,16.42
2023-02-16T00:47:19.971Z,16.25
2023-02-16T00:49:54.460Z,15.70
2023-02-16T00:52:32.958Z,16.15
2023-02-16T00:55:01.824Z,16.08
2023-02-16T00:57:33.331Z,18.60
2023-02-16T01:00:05.455Z,18.48
2023-02-16T01:02:35.001Z,15.52
2023-02-16T01:05:04.795Z,13.85
2023-02-16T01:07:53.240Z,16.83
2023-02-16T01:10:39.250Z,17.40
2023-02-16T01:13:07.627Z,14.73
2023-02-16T01:15:36.164Z,19.92
2023-02-16T01:18:04.774Z,13.93
2023-02-16T01:20:35.263Z,14.63
2023-02-16T01:23:03.650Z,14.70
2023-02-16T01:25:32.019Z,19.70
2023-02-16T01:28:00.536Z,16.23
2023-02-16T01:30:29.002Z,12.23
2023-02-16T01:32:57.384Z,13.57
2023-02-16T01:35:29.479Z,16.05
2023-02-16T01:37:59.224Z,18.48
2023-02-16T01:40:35.647Z,16.58
2023-02-16T01:43:05.783Z,18.80
2023-02-16T01:45:35.173Z,15.40
2023-02-16T01:48:05.318Z,13.98
2023-02-16T01:50:41.163Z,13.98
2023-02-16T01:53:15.256Z,14.73
2023-02-16T01:55:46.142Z,17.77
2023-02-16T01:58:15.908Z,17.50
2023-02-16T02:01:36.007Z,15.30
2023-02-16T02:04:24.010Z,13.25
2023-02-16T02:06:52.548Z,19.17
2023-02-16T02:09:27.564Z,15.00
2023-02-16T02:11:58.115Z,16.08
2023-02-16T02:14:28.102Z,16.88
2023-02-16T02:16:58.536Z,16.10
2023-02-16T02:19:26.944Z,12.85
2023-02-16T02:22:27.399Z,14.52
2023-02-16T02:25:20.661Z,18.33
2023-02-16T02:27:51.083Z,14.05
2023-02-16T02:30:25.231Z,16.33
2023-02-16T02:33:06.539Z,15.30
2023-02-16T02:35:42.936Z,16.55
2023-02-16T02:38:13.358Z,16.93
2023-02-16T02:40:47.924Z,15.02
2023-02-16T02:43:18.739Z,13.30
2023-02-16T02:45:48.602Z,15.82
2023-02-16T02:48:16.985Z,15.68
2023-02-16T02:51:02.358Z,18.52
2023-02-16T02:53:30.828Z,12.68
2023-02-16T02:56:17.329Z,18.08
2023-02-16T02:59:13.382Z,16.38
2023-02-16T03:01:43.307Z,17.50
2023-02-16T03:04:11.670Z,15.43
2023-02-16T03:06:41.328Z,13.52
2023-02-16T03:09:12.032Z,11.90
2023-02-16T03:11:59.551Z,13.93
2023-02-16T03:14:31.845Z,18.70
2023-02-16T03:17:18.739Z,16.20
2023-02-16T03:20:05.530Z,18.17
2023-02-16T03:22:52.490Z,17.67
2023-02-16T03:25:38.439Z,14.67
2023-02-16T03:28:25.291Z,15.52
2023-02-16T03:30:55.088Z,16.40
2023-02-16T03:33:23.522Z,19.73
2023-02-16T03:35:52.061Z,18.98
2023-02-16T03:38:20.577Z,15.40
2023-02-16T03:40:53.858Z,22.70
2023-02-16T03:43:23.561Z,13.60
2023-02-16T03:45:51.931Z,16.58
2023-02-16T03:48:21.782Z,15.02
2023-02-16T03:50:50.113Z,12.23
2023-02-16T03:53:19.135Z,12.05
2023-02-16T03:55:48.280Z,14.63
2023-02-16T03:58:18.158Z,16.77
2023-02-16T04:00:46.482Z,15.45
2023-02-16T04:03:15.040Z,14.55
2023-02-16T04:05:44.851Z,19.90
2023-02-16T04:08:13.257Z,18.77
2023-02-16T04:10:41.670Z,15.52
2023-02-16T04:13:09.155Z,15.68
2023-02-16T04:15:37.568Z,13.15
2023-02-16T04:18:08.495Z,13.85
2023-02-16T04:20:37.065Z,15.13
2023-02-16T04:23:06.867Z,17.10
2023-02-16T04:25:35.302Z,14.00
2023-02-16T04:28:03.673Z,11.10
2023-02-16T04:30:35.385Z,13.35
2023-02-16T04:33:03.784Z,14.45
2023-02-16T04:35:41.360Z,15.63
2023-02-16T04:38:11.103Z,12.10
2023-02-16T04:40:39.492Z,18.33
2023-02-16T04:43:07.862Z,12.80
2023-02-16T04:45:36.192Z,12.65
2023-02-16T04:48:04.711Z,13.65
2023-02-16T04:50:33.037Z,13.95
2023-02-16T04:53:03.755Z,14.15
2023-02-16T04:55:34.612Z,14.45
2023-02-16T04:58:02.921Z,13.40
2023-02-16T05:00:31.263Z,18.20
2023-02-16T05:03:01.148Z,14.65
2023-02-16T05:05:29.498Z,13.88
2023-02-16T05:07:57.835Z,13.93
2023-02-16T05:10:26.151Z,18.05
2023-02-16T05:13:13.433Z,15.60
2023-02-16T05:15:44.964Z,12.55
2023-02-16T05:18:16.403Z,13.57
2023-02-16T05:21:02.538Z,12.55
2023-02-16T05:23:31.042Z,13.57
2023-02-16T05:25:59.354Z,15.50
2023-02-16T05:28:29.096Z,16.05
2023-02-16T05:30:59.989Z,14.48
2023-02-16T05:33:28.410Z,14.85
2023-02-16T05:35:56.793Z,13.30
2023-02-16T05:38:26.438Z,11.60
2023-02-16T05:40:57.597Z,13.18
2023-02-16T05:43:30.640Z,13.18
2023-02-16T05:46:01.926Z,15.57
2023-02-16T05:48:30.334Z,12.63
2023-02-16T05:50:58.721Z,14.27
2023-02-16T05:53:27.185Z,12.63
2023-02-16T05:55:55.524Z,19.08
2023-02-16T05:58:24.063Z,12.07
2023-02-16T06:00:54.176Z,11.25
2023-02-16T06:03:22.612Z,13.80
2023-02-16T06:05:54.026Z,13.80
2023-02-16T06:08:22.590Z,12.82
2023-02-16T06:10:51.106Z,13.52
2023-02-16T06:13:19.666Z,18.08
2023-02-16T06:15:48.182Z,13.18
2023-02-16T06:18:18.212Z,18.10
2023-02-16T06:20:46.535Z,13.90
2023-02-16T06:23:15.030Z,35.13
2023-02-16T06:25:46.136Z,17.65
2023-02-16T06:28:14.462Z,18.55
2023-02-16T06:30:42.995Z,19.58
2023-02-16T06:33:11.319Z,20.35
2023-02-16T06:35:41.041Z,14.82
2023-02-16T06:38:09.364Z,10.93
2023-02-16T06:40:37.673Z,20.73
2023-02-16T06:43:06.060Z,11.80
2023-02-16T06:45:34.484Z,12.90
2023-02-16T06:48:05.740Z,16.30
2023-02-16T06:50:34.138Z,14.68
2023-02-16T06:53:03.942Z,21.27
2023-02-16T06:55:38.535Z,32.45
2023-02-16T06:58:07.538Z,45.00
2023-02-16T07:00:38.130Z,58.55
2023-02-16T07:03:06.601Z,49.83
2023-02-16T07:05:34.915Z,45.88
2023-02-16T07:08:04.881Z,41.65
2023-02-16T07:10:47.738Z,35.08
2023-02-16T07:13:18.065Z,32.40
2023-02-16T07:15:46.695Z,37.70
2023-02-16T07:18:16.515Z,41.40
2023-02-16T07:20:47.918Z,30.70
2023-02-16T07:23:17.650Z,27.63
2023-02-16T07:25:48.885Z,30.25
2023-02-16T07:28:17.562Z,23.98
2023-02-16T07:30:45.979Z,26.15
2023-02-16T07:33:15.477Z,24.13
2023-02-16T07:35:46.935Z,25.88
2023-02-16T07:38:15.297Z,28.70
2023-02-16T07:40:45.088Z,21.40
2023-02-16T07:43:13.414Z,26.77
2023-02-16T07:45:42.424Z,30.17
2023-02-16T07:48:10.825Z,22.30
2023-02-16T07:50:39.188Z,29.80
2023-02-16T07:53:07.652Z,23.10
2023-02-16T07:55:40.504Z,18.77
2023-02-16T07:58:10.331Z,23.30
2023-02-16T08:00:38.818Z,23.08
2023-02-16T08:03:07.365Z,25.92
2023-02-16T08:05:38.839Z,24.42
2023-02-16T08:08:07.260Z,22.70
2023-02-16T08:10:35.702Z,25.42
2023-02-16T08:13:04.013Z,22.30
2023-02-16T08:15:33.678Z,22.30
2023-02-16T08:18:01.969Z,22.20
2023-02-16T08:20:46.030Z,19.75
2023-02-16T08:23:16.697Z,18.05
2023-02-16T08:25:45.789Z,15.75
2023-02-16T08:28:19.324Z,15.30
2023-02-16T08:30:49.723Z,17.80
2023-02-16T08:33:18.788Z,23.13
2023-02-16T08:35:47.142Z,19.00
2023-02-16T08:38:17.142Z,18.63
2023-02-16T08:40:50.323Z,19.05
2023-02-16T08:43:18.847Z,15.32
2023-02-16T08:45:48.970Z,17.98
2023-02-16T08:48:17.800Z,17.60
2023-02-16T08:50:53.214Z,15.38
2023-02-16T08:53:23.054Z,15.90
2023-02-16T08:55:55.633Z,16.45
2023-02-16T08:58:24.402Z,15.25
2023-02-16T09:00:54.185Z,15.88
2023-02-16T09:03:22.634Z,13.30
2023-02-16T09:05:52.824Z,15.65
2023-02-16T09:08:21.575Z,12.40
2023-02-16T09:10:52.090Z,15.88
2023-02-16T09:13:23.268Z,14.93
2023-02-16T09:15:55.973Z,14.65
2023-02-16T09:18:26.842Z,15.60
2023-02-16T09:21:00.014Z,16.98
2023-02-16T09:23:28.329Z,13.50
2023-02-16T09:25:56.619Z,14.38
2023-02-16T09:28:24.993Z,19.77
2023-02-16T09:30:55.115Z,12.50
2023-02-16T09:33:25.188Z,17.50
2023-02-16T09:35:53.791Z,14.82
2023-02-16T09:38:22.842Z,13.43
2023-02-16T09:40:51.159Z,14.23
2023-02-16T09:43:25.345Z,14.75
2023-02-16T09:45:54.884Z,16.23
2023-02-16T09:48:30.370Z,12.27
2023-02-16T09:50:59.182Z,17.25
2023-02-16T09:53:31.522Z,16.15
2023-02-16T09:56:06.222Z,13.40
2023-02-16T09:58:38.076Z,14.65
2023-02-16T10:01:09.577Z,16.10
2023-02-16T10:03:47.553Z,15.52
2023-02-16T10:06:29.159Z,12.30
2023-02-16T10:09:00.824Z,14.68
2023-02-16T10:11:41.612Z,13.45
2023-02-16T10:14:15.239Z,15.02
2023-02-16T10:16:49.662Z,17.67
2023-02-16T10:19:21.511Z,15.63
2023-02-16T10:21:52.547Z,13.43
2023-02-16T10:24:20.888Z,16.80
2023-02-16T10:26:51.072Z,16.85
2023-02-16T10:29:20.688Z,11.73
2023-02-16T10:31:51.236Z,16.85
2023-02-16T10:34:23.380Z,14.23
2023-02-16T10:37:34.413Z,14.75
2023-02-16T10:40:19.741Z,12.10
2023-02-16T10:42:53.424Z,13.30
2023-02-16T10:45:27.157Z,13.13
2023-02-16T10:47:55.823Z,15.00
2023-02-16T10:50:27.739Z,16.67
2023-02-16T10:52:58.967Z,13.48
2023-02-16T10:55:27.663Z,14.90
2023-02-16T10:57:58.289Z,11.95
2023-02-16T11:00:34.986Z,15.32
2023-02-16T11:03:03.683Z,17.92
2023-02-16T11:05:36.034Z,13.18
2023-02-16T11:08:04.754Z,11.77
2023-02-16T11:10:43.921Z,14.52
2023-02-16T11:13:21.850Z,13.45
2023-02-16T11:15:52.249Z,13.35
2023-02-16T11:18:28.739Z,14.02
2023-02-16T11:21:00.905Z,13.60
2023-02-16T11:23:30.053Z,11.10
2023-02-16T11:26:00.334Z,14.85
2023-02-16T11:28:32.646Z,11.82
2023-02-16T11:31:03.480Z,15.68
2023-02-16T11:33:32.686Z,10.68
2023-02-16T11:36:05.540Z,9.60
2023-02-16T11:38:37.557Z,14.15
2023-02-16T11:41:07.305Z,10.07
2023-02-16T11:43:37.551Z,10.32
2023-02-16T11:46:08.703Z,11.30
2023-02-16T11:48:38.024Z,11.25
2023-02-16T11:51:11.735Z,8.77
2023-02-16T11:53:43.670Z,11.00
2023-02-16T11:56:15.926Z,11.52
2023-02-16T11:58:47.022Z,10.13
2023-02-16T12:01:23.128Z,12.32
2023-02-16T12:04:12.825Z,8.07
2023-02-16T12:06:51.677Z,10.55
2023-02-16T12:09:24.394Z,9.93
2023-02-16T12:11:59.020Z,10.38
2023-02-16T12:14:39.815Z,11.52
2023-02-16T12:17:16.452Z,9.73
2023-02-16T12:19:46.158Z,10.40
2023-02-16T12:22:27.454Z,9.65
2023-02-16T12:25:03.800Z,10.23
2023-02-16T12:27:34.735Z,10.20
2023-02-16T12:30:09.801Z,10.63
2023-02-16T12:32:48.232Z,11.40
2023-02-16T12:35:33.783Z,10.35
2023-02-16T12:38:06.205Z,9.82
2023-02-16T12:40:42.549Z,10.15
2023-02-16T12:43:19.626Z,8.17
2023-02-16T12:48:28.378Z,8.48
2023-02-16T12:50:56.738Z,8.40
2023-02-16T12:53:41.202Z,8.70
2023-02-16T12:56:12.508Z,7.38
2023-02-16T12:58:41.475Z,8.95
2023-02-16T13:01:16.471Z,9.13
2023-02-16T13:03:50.129Z,7.95
2023-02-16T13:06:21.181Z,7.80
2023-02-16T13:08:55.691Z,8.75
2023-02-16T13:11:25.679Z,10.68
2023-02-16T13:13:55.906Z,9.25
2023-02-16T13:16:30.576Z,8.57
2023-02-16T13:18:59.340Z,7.80
2023-02-16T13:21:50.821Z,9.02
2023-02-16T13:24:31.758Z,8.27
2023-02-16T13:27:13.534Z,11.30
2023-02-16T13:29:55.104Z,12.52
2023-02-16T13:32:34.742Z,8.38
2023-02-16T13:35:12.631Z,7.32
2023-02-16T13:37:49.774Z,8.05
2023-02-16T13:43:13.998Z,7.18
2023-02-16T13:45:45.630Z,7.53
2023-02-16T13:48:15.587Z,6.70
2023-02-16T13:50:44.048Z,8.25
2023-02-16T13:53:19.428Z,7.70
2023-02-16T13:55:50.747Z,8.95
2023-02-16T13:58:32.609Z,6.80
2023-02-16T14:01:09.401Z,8.98
2023-02-16T14:03:39.287Z,8.10
2023-02-16T14:06:32.206Z,6.97
2023-02-16T14:09:33.433Z,8.75
2023-02-16T14:12:07.312Z,6.93
2023-02-16T14:14:37.775Z,6.68
2023-02-16T14:17:23.500Z,6.57
2023-02-16T14:19:53.858Z,6.65
2023-02-16T14:22:23.963Z,6.00
2023-02-16T14:24:55.818Z,6.53
2023-02-16T14:27:46.206Z,6.63
2023-02-16T14:30:20.853Z,6.20
2023-02-16T14:32:51.164Z,7.75
2023-02-16T14:35:20.877Z,5.60
2023-02-16T14:37:54.406Z,6.70
2023-02-16T14:40:53.129Z,7.18
2023-02-16T14:43:31.820Z,5.45
2023-02-16T14:46:19.816Z,5.38
2023-02-16T14:49:00.429Z,8.02
2023-02-16T14:51:53.381Z,5.43
2023-02-16T14:54:48.357Z,4.68
2023-02-16T14:57:16.970Z,5.07
2023-02-16T14:59:49.635Z,6.65
2023-02-16T15:02:31.207Z,6.93
2023-02-16T15:05:01.996Z,4.65
2023-02-16T15:07:30.456Z,4.53
2023-02-16T15:09:59.987Z,4.95
2023-02-16T15:12:29.745Z,6.55
2023-02-16T15:15:01.276Z,5.60
2023-02-16T15:17:31.625Z,4.75
2023-02-16T15:20:05.165Z,7.20
2023-02-16T15:22:33.587Z,4.93
2023-02-16T15:25:02.912Z,5.20
2023-02-16T15:27:34.969Z,6.05
2023-02-16T15:30:21.178Z,4.60
2023-02-16T15:32:53.719Z,6.32
2023-02-16T15:35:27.684Z,9.38
2023-02-16T15:38:03.680Z,5.22
2023-02-16T15:40:35.143Z,7.75
2023-02-16T15:43:15.346Z,4.40
2023-02-16T15:45:50.228Z,6.65
2023-02-16T15:48:24.007Z,6.03
2023-02-16T15:50:53.520Z,6.07
2023-02-16T15:53:40.417Z,5.00
2023-02-16T15:56:26.212Z,5.10
2023-02-16T15:58:54.675Z,4.80
2023-02-16T16:01:31.513Z,5.07
2023-02-16T16:04:05.451Z,4.82
2023-02-16T16:06:38.021Z,4.57
2023-02-16T16:09:08.538Z,5.85
2023-02-16T16:11:37.757Z,4.60
2023-02-16T16:14:08.348Z,4.60
2023-02-16T16:16:38.040Z,4.28
2023-02-16T16:19:14.086Z,4.70
2023-02-16T16:21:48.106Z,5.13
2023-02-16T16:24:32.604Z,5.55
2023-02-16T16:27:04.412Z,3.97
2023-02-16T16:29:34.417Z,3.38
2023-02-16T16:32:04.658Z,3.42
2023-02-16T16:34:41.580Z,3.85
2023-02-16T16:37:23.848Z,6.15
2023-02-16T16:40:00.585Z,3.75
2023-02-16T16:42:31.070Z,4.60
2023-02-16T16:45:08.864Z,4.28
2023-02-16T16:47:44.319Z,5.07
2023-02-16T16:50:33.162Z,6.18
2023-02-16T16:53:01.669Z,6.32
2023-02-16T16:55:34.400Z,6.55
2023-02-16T16:58:04.802Z,9.02
2023-02-16T17:00:35.483Z,8.50
2023-02-16T17:03:09.574Z,13.13
2023-02-16T17:05:41.392Z,9.35
2023-02-16T17:08:09.744Z,6.55
2023-02-16T17:10:38.467Z,13.77
2023-02-16T17:13:06.928Z,20.80
2023-02-16T17:15:38.858Z,15.57
2023-02-16T17:18:10.741Z,8.82
2023-02-16T17:20:44.855Z,13.00
2023-02-16T17:23:13.270Z,11.38
2023-02-16T17:25:42.110Z,13.25
2023-02-16T17:28:11.892Z,15.18
2023-02-16T17:30:40.288Z,12.57
2023-02-16T17:33:13.732Z,11.15
2023-02-16T17:35:42.949Z,9.82
2023-02-16T17:38:11.943Z,9.38
2023-02-16T17:40:41.246Z,12.23
2023-02-16T17:43:13.691Z,9.15
2023-02-16T17:45:42.325Z,6.88
2023-02-16T17:48:15.915Z,8.38
2023-02-16T17:50:44.277Z,7.68
2023-02-16T17:53:18.485Z,6.18
2023-02-16T17:55:47.432Z,12.25
2023-02-16T17:58:16.066Z,8.88
2023-02-16T18:00:44.785Z,6.82
2023-02-16T18:03:21.711Z,7.85
2023-02-16T18:05:52.484Z,5.95
2023-02-16T18:08:20.876Z,5.50
2023-02-16T18:10:53.897Z,5.15
2023-02-16T18:13:22.296Z,3.88
2023-02-16T18:15:50.677Z,4.05
2023-02-16T18:18:20.362Z,4.40
2023-02-16T18:20:48.945Z,3.30
2023-02-16T18:23:17.446Z,4.03
2023-02-16T18:25:50.045Z,4.18
2023-02-16T18:28:19.481Z,3.58
2023-02-16T18:30:49.205Z,3.03
2023-02-16T18:33:17.730Z,2.72
2023-02-16T18:35:47.419Z,3.45
2023-02-16T18:38:19.960Z,3.67
2023-02-16T18:40:49.740Z,2.78
2023-02-16T18:43:18.146Z,7.68
2023-02-16T18:45:46.624Z,4.20
2023-02-16T18:48:16.657Z,6.18
2023-02-16T18:50:45.459Z,3.35
2023-02-16T18:53:15.288Z,3.20
2023-02-16T18:55:46.483Z,2.45
2023-02-16T18:58:15.136Z,4.60
2023-02-16T19:00:43.985Z,2.80
2023-02-16T19:03:15.190Z,4.72
2023-02-16T19:05:43.912Z,2.70
2023-02-16T19:08:12.254Z,2.92
2023-02-16T19:10:41.971Z,2.08
2023-02-16T19:13:13.411Z,3.42
2023-02-16T19:15:45.511Z,2.30
2023-02-16T19:18:13.822Z,1.90
2023-02-16T19:20:42.203Z,1.90
2023-02-16T19:23:10.729Z,1.83
2023-02-16T19:25:42.114Z,1.88
2023-02-16T19:28:11.876Z,1.88
2023-02-16T19:30:42.941Z,2.55
2023-02-16T19:33:11.343Z,2.50
2023-02-16T19:35:42.144Z,2.55
2023-02-16T19:38:10.509Z,2.10
2023-02-16T19:40:40.031Z,2.78
2023-02-16T19:43:08.372Z,1.90
2023-02-16T19:45:42.638Z,2.00
2023-02-16T19:48:11.011Z,1.77
2023-02-16T19:50:39.372Z,1.60
2023-02-16T19:53:08.941Z,1.80
2023-02-16T19:55:44.162Z,2.00
2023-02-16T19:58:14.764Z,1.67
2023-02-16T20:00:44.675Z,2.50
2023-02-16T20:03:13.081Z,3.97
2023-02-16T20:05:41.524Z,2.85
2023-02-16T20:08:09.932Z,1.92
2023-02-16T20:10:40.795Z,1.90
2023-02-16T20:13:11.970Z,2.42
2023-02-16T20:15:44.716Z,2.40
2023-02-16T20:18:13.063Z,2.47
2023-02-16T20:20:44.205Z,2.10
2023-02-16T20:23:15.842Z,2.40
2023-02-16T20:25:44.213Z,1.95
2023-02-16T20:28:12.532Z,2.10
2023-02-16T20:30:44.171Z,2.60
2023-02-16T20:33:12.484Z,3.05
2023-02-16T20:35:42.263Z,1.60
2023-02-16T20:38:17.904Z,2.15
2023-02-16T20:40:51.924Z,2.97
2023-02-16T20:43:20.978Z,2.20
2023-02-16T20:45:50.663Z,1.67
2023-02-16T20:48:20.211Z,1.58
2023-02-16T20:50:54.151Z,2.10
2023-02-16T20:53:22.599Z,2.58
2023-02-16T20:55:53.009Z,1.73
2023-02-16T20:58:21.710Z,2.33
2023-02-16T21:00:51.561Z,2.17
2023-02-16T21:03:19.898Z,1.33
2023-02-16T21:05:53.551Z,2.65
2023-02-16T21:08:22.234Z,1.83
2023-02-16T21:10:50.661Z,2.30
2023-02-16T21:13:19.028Z,1.10
2023-02-16T21:15:47.441Z,3.10
2023-02-16T21:18:17.166Z,2.40
2023-02-16T21:20:45.522Z,1.50
2023-02-16T21:23:16.819Z,2.50
2023-02-16T21:25:45.193Z,1.80
2023-02-16T21:28:13.554Z,1.40
2023-02-16T21:30:44.608Z,1.90
2023-02-16T21:33:12.925Z,2.10
2023-02-16T21:35:42.576Z,1.60
2023-02-16T21:38:11.065Z,1.80
2023-02-16T21:40:56.949Z,3.58
2023-02-16T21:43:29.298Z,2.13
2023-02-16T21:46:00.871Z,2.40
2023-02-16T21:48:46.822Z,2.13
2023-02-16T21:51:17.352Z,2.33
2023-02-16T21:53:47.520Z,1.90
2023-02-16T21:56:31.025Z,2.70
2023-02-16T21:58:59.378Z,3.35
2023-02-16T22:01:29.024Z,2.35
2023-02-16T22:04:03.563Z,2.83
2023-02-16T22:06:37.088Z,2.85
2023-02-16T22:09:06.638Z,2.22
2023-02-16T22:11:37.144Z,3.70
2023-02-16T22:14:05.490Z,1.60
2023-02-16T22:16:37.758Z,5.53
2023-02-16T22:19:09.407Z,6.82
2023-02-16T22:21:40.362Z,6.47
2023-02-16T22:24:15.324Z,4.25
2023-02-16T22:26:43.750Z,4.45
2023-02-16T22:29:12.157Z,3.53
2023-02-16T22:31:44.789Z,10.20
2023-02-16T22:34:14.676Z,7.93
2023-02-16T22:36:44.459Z,4.38
2023-02-16T22:39:13.666Z,3.70
2023-02-16T22:41:42.068Z,11.07
2023-02-16T22:44:11.086Z,4.20
2023-02-16T22:46:39.462Z,3.15
2023-02-16T22:49:07.849Z,5.68
2023-02-16T22:51:37.835Z,4.10
2023-02-16T22:54:07.586Z,5.47
2023-02-16T22:56:39.399Z,5.32
2023-02-16T22:59:07.745Z,4.60
2023-02-16T23:01:37.389Z,5.15
2023-02-16T23:04:06.108Z,9.68
2023-02-16T23:06:36.539Z,5.65
2023-02-16T23:09:07.386Z,3.47
2023-02-16T23:11:36.176Z,12.15
2023-02-16T23:14:04.603Z,5.35
2023-02-16T23:16:33.029Z,8.45
2023-02-16T23:19:01.449Z,3.78
2023-02-16T23:21:30.509Z,4.70
2023-02-16T23:23:59.209Z,5.63
2023-02-16T23:26:31.176Z,7.28
2023-02-16T23:29:00.953Z,3.47
2023-02-16T23:31:32.308Z,6.90
2023-02-16T23:34:02.448Z,6.43
2023-02-16T23:36:31.223Z,6.05
2023-02-16T23:39:01.124Z,4.38
2023-02-16T23:41:30.881Z,4.55
2023-02-16T23:44:01.077Z,5.10
2023-02-16T23:46:29.747Z,5.13
2023-02-16T23:48:58.156Z,6.93
2023-02-16T23:51:26.687Z,5.07
2023-02-16T23:53:55.081Z,6.00
2023-02-16T23:56:24.022Z,6.45
2023-02-16T23:58:53.793Z,4.65
